sensor_id;sensor_type;location;lat;lon;timestamp;temperature;humidity
9564;DHT22;4820;50.870;4.702;2023-10-09T00:01:06;16.20;99.90
9564;DHT22;4820;50.870;4.702;2023-10-09T00:03:44;16.20;99.90
9564;DHT22;4820;50.870;4.702;2023-10-09T00:06:11;16.30;99.90
9564;DHT22;4820;50.870;4.702;2023-10-09T00:08:39;16.20;99.90
9564;DHT22;4820;50.870;4.702;2023-10-09T00:11:10;16.30;99.90
9564;DHT22;4820;50.870;4.702;2023-10-09T00:13:44;16.30;99.90
9564;DHT22;4820;50.870;4.702;2023-10-09T00:16:21;16.40;99.90
9564;DHT22;4820;50.870;4.702;2023-10-09T00:19:04;16.40;99.90
9564;DHT22;4820;50.870;4.702;2023-10-09T00:21:47;16.40;99.90
9564;DHT22;4820;50.870;4.702;2023-10-09T00:24:14;16.40;99.90
9564;DHT22;4820;50.870;4.702;2023-10-09T00:26:58;16.50;99.90
9564;DHT22;4820;50.870;4.702;2023-10-09T00:29:45;16.50;99.90
9564;DHT22;4820;50.870;4.702;2023-10-09T00:32:15;16.60;99.90
9564;DHT22;4820;50.870;4.702;2023-10-09T00:34:44;16.60;99.90
9564;DHT22;4820;50.870;4.702;2023-10-09T00:37:16;16.50;99.90
9564;DHT22;4820;50.870;4.702;2023-10-09T00:39:43;16.50;99.90
9564;DHT22;4820;50.870;4.702;2023-10-09T00:42:10;16.50;99.90
9564;DHT22;4820;50.870;4.702;2023-10-09T00:44:40;16.50;99.90
9564;DHT22;4820;50.870;4.702;2023-10-09T00:47:15;16.50;99.90
9564;DHT22;4820;50.870;4.702;2023-10-09T00:52:37;16.50;99.90
9564;DHT22;4820;50.870;4.702;2023-10-09T00:55:23;16.50;99.90
9564;DHT22;4820;50.870;4.702;2023-10-09T00:58:01;16.50;99.90
9564;DHT22;4820;50.870;4.702;2023-10-09T01:00:31;16.40;99.90
9564;DHT22;4820;50.870;4.702;2023-10-09T01:03:01;16.40;99.90
9564;DHT22;4820;50.870;4.702;2023-10-09T01:05:51;16.30;99.90
9564;DHT22;4820;50.870;4.702;2023-10-09T01:08:29;16.30;99.90
9564;DHT22;4820;50.870;4.702;2023-10-09T01:10:55;16.30;99.90
9564;DHT22;4820;50.870;4.702;2023-10-09T01:13:34;16.30;99.90
9564;DHT22;4820;50.870;4.702;2023-10-09T01:16:20;16.30;99.90
9564;DHT22;4820;50.870;4.702;2023-10-09T01:18:48;16.20;99.90
9564;DHT22;4820;50.870;4.702;2023-10-09T01:21:18;16.20;99.90
9564;DHT22;4820;50.870;4.702;2023-10-09T01:23:48;16.20;99.90
9564;DHT22;4820;50.870;4.702;2023-10-09T01:26:34;16.20;99.90
9564;DHT22;4820;50.870;4.702;2023-10-09T01:29:08;16.20;99.90
9564;DHT22;4820;50.870;4.702;2023-10-09T01:31:48;16.20;99.90
9564;DHT22;4820;50.870;4.702;2023-10-09T01:34:18;16.20;99.90
9564;DHT22;4820;50.870;4.702;2023-10-09T01:36:44;16.10;99.90
9564;DHT22;4820;50.870;4.702;2023-10-09T01:39:14;16.20;99.90
9564;DHT22;4820;50.870;4.702;2023-10-09T01:41:54;16.20;99.90
9564;DHT22;4820;50.870;4.702;2023-10-09T01:44:32;16.10;99.90
9564;DHT22;4820;50.870;4.702;2023-10-09T01:47:09;16.20;99.90
9564;DHT22;4820;50.870;4.702;2023-10-09T01:49:45;16.10;99.90
9564;DHT22;4820;50.870;4.702;2023-10-09T01:52:15;16.10;99.90
9564;DHT22;4820;50.870;4.702;2023-10-09T01:54:42;16.20;99.90
9564;DHT22;4820;50.870;4.702;2023-10-09T01:57:13;16.20;99.90
9564;DHT22;4820;50.870;4.702;2023-10-09T01:59:44;16.20;99.90
9564;DHT22;4820;50.870;4.702;2023-10-09T02:02:11;16.20;99.90
9564;DHT22;4820;50.870;4.702;2023-10-09T02:05:00;16.20;99.90
9564;DHT22;4820;50.870;4.702;2023-10-09T02:07:50;16.20;99.90
9564;DHT22;4820;50.870;4.702;2023-10-09T02:10:21;16.30;99.90
9564;DHT22;4820;50.870;4.702;2023-10-09T02:12:55;16.30;99.90
9564;DHT22;4820;50.870;4.702;2023-10-09T02:15:30;16.30;99.90
9564;DHT22;4820;50.870;4.702;2023-10-09T02:18:29;16.30;99.90
9564;DHT22;4820;50.870;4.702;2023-10-09T02:23:29;16.30;99.90
9564;DHT22;4820;50.870;4.702;2023-10-09T02:26:14;16.30;99.90
9564;DHT22;4820;50.870;4.702;2023-10-09T02:29:05;16.30;99.90
9564;DHT22;4820;50.870;4.702;2023-10-09T02:31:31;16.20;99.90
9564;DHT22;4820;50.870;4.702;2023-10-09T02:34:06;16.30;99.90
9564;DHT22;4820;50.870;4.702;2023-10-09T02:36:41;16.30;99.90
9564;DHT22;4820;50.870;4.702;2023-10-09T02:39:08;16.30;99.90
9564;DHT22;4820;50.870;4.702;2023-10-09T02:41:49;16.30;99.90
9564;DHT22;4820;50.870;4.702;2023-10-09T02:44:16;16.30;99.90
9564;DHT22;4820;50.870;4.702;2023-10-09T02:46:42;16.30;99.90
9564;DHT22;4820;50.870;4.702;2023-10-09T02:49:10;16.30;99.90
9564;DHT22;4820;50.870;4.702;2023-10-09T02:51:41;16.30;99.90
9564;DHT22;4820;50.870;4.702;2023-10-09T02:54:13;16.30;99.90
9564;DHT22;4820;50.870;4.702;2023-10-09T02:56:50;16.20;99.90
9564;DHT22;4820;50.870;4.702;2023-10-09T02:59:36;16.20;99.90
9564;DHT22;4820;50.870;4.702;2023-10-09T03:02:07;16.20;99.90
9564;DHT22;4820;50.870;4.702;2023-10-09T03:04:34;16.20;99.90
9564;DHT22;4820;50.870;4.702;2023-10-09T03:07:00;16.20;99.90
9564;DHT22;4820;50.870;4.702;2023-10-09T03:09:27;16.20;99.90
9564;DHT22;4820;50.870;4.702;2023-10-09T03:11:59;16.20;99.90
9564;DHT22;4820;50.870;4.702;2023-10-09T03:14:37;16.20;99.90
9564;DHT22;4820;50.870;4.702;2023-10-09T03:17:09;16.20;99.90
9564;DHT22;4820;50.870;4.702;2023-10-09T03:19:39;16.30;99.90
9564;DHT22;4820;50.870;4.702;2023-10-09T03:22:06;16.30;99.90
9564;DHT22;4820;50.870;4.702;2023-10-09T03:24:36;16.30;99.90
9564;DHT22;4820;50.870;4.702;2023-10-09T03:27:03;16.30;99.90
9564;DHT22;4820;50.870;4.702;2023-10-09T03:29:29;16.30;99.90
9564;DHT22;4820;50.870;4.702;2023-10-09T03:31:55;16.30;99.90
9564;DHT22;4820;50.870;4.702;2023-10-09T03:34:22;16.20;99.90
9564;DHT22;4820;50.870;4.702;2023-10-09T03:36:49;16.20;99.90
9564;DHT22;4820;50.870;4.702;2023-10-09T03:39:25;16.10;99.90
9564;DHT22;4820;50.870;4.702;2023-10-09T03:42:04;16.10;99.90
9564;DHT22;4820;50.870;4.702;2023-10-09T03:44:34;16.10;99.90
9564;DHT22;4820;50.870;4.702;2023-10-09T03:47:04;16.10;99.90
9564;DHT22;4820;50.870;4.702;2023-10-09T03:49:30;16.10;99.90
9564;DHT22;4820;50.870;4.702;2023-10-09T03:51:57;16.00;99.90
9564;DHT22;4820;50.870;4.702;2023-10-09T03:54:24;16.00;99.90
9564;DHT22;4820;50.870;4.702;2023-10-09T03:56:50;16.00;99.90
9564;DHT22;4820;50.870;4.702;2023-10-09T03:59:19;16.00;99.90
9564;DHT22;4820;50.870;4.702;2023-10-09T04:01:46;16.00;99.90
9564;DHT22;4820;50.870;4.702;2023-10-09T04:04:13;16.00;99.90
9564;DHT22;4820;50.870;4.702;2023-10-09T04:06:40;16.00;99.90
9564;DHT22;4820;50.870;4.702;2023-10-09T04:09:12;16.10;99.90
9564;DHT22;4820;50.870;4.702;2023-10-09T04:11:40;16.10;99.90
9564;DHT22;4820;50.870;4.702;2023-10-09T04:14:12;16.10;99.90
9564;DHT22;4820;50.870;4.702;2023-10-09T04:16:40;16.10;99.90
9564;DHT22;4820;50.870;4.702;2023-10-09T04:19:26;16.10;99.90
9564;DHT22;4820;50.870;4.702;2023-10-09T04:21:51;16.20;99.90
9564;DHT22;4820;50.870;4.702;2023-10-09T04:24:21;16.20;99.90
9564;DHT22;4820;50.870;4.702;2023-10-09T04:26:47;16.20;99.90
9564;DHT22;4820;50.870;4.702;2023-10-09T04:29:16;16.30;99.90
9564;DHT22;4820;50.870;4.702;2023-10-09T04:32:03;16.20;99.90
9564;DHT22;4820;50.870;4.702;2023-10-09T04:34:33;16.20;99.90
9564;DHT22;4820;50.870;4.702;2023-10-09T04:37:03;16.30;99.90
9564;DHT22;4820;50.870;4.702;2023-10-09T04:39:43;16.20;99.90
9564;DHT22;4820;50.870;4.702;2023-10-09T04:42:13;16.20;99.90
9564;DHT22;4820;50.870;4.702;2023-10-09T04:44:45;16.20;99.90
9564;DHT22;4820;50.870;4.702;2023-10-09T04:47:30;16.20;99.90
9564;DHT22;4820;50.870;4.702;2023-10-09T04:52:52;16.10;99.90
9564;DHT22;4820;50.870;4.702;2023-10-09T04:55:18;16.20;99.90
9564;DHT22;4820;50.870;4.702;2023-10-09T04:57:47;16.20;99.90
9564;DHT22;4820;50.870;4.702;2023-10-09T05:00:26;16.20;99.90
9564;DHT22;4820;50.870;4.702;2023-10-09T05:03:02;16.20;99.90
9564;DHT22;4820;50.870;4.702;2023-10-09T05:05:52;16.20;99.90
9564;DHT22;4820;50.870;4.702;2023-10-09T05:08:25;16.20;99.90
9564;DHT22;4820;50.870;4.702;2023-10-09T05:10:56;16.20;99.90
9564;DHT22;4820;50.870;4.702;2023-10-09T05:13:31;16.10;99.90
9564;DHT22;4820;50.870;4.702;2023-10-09T05:16:17;16.20;99.90
9564;DHT22;4820;50.870;4.702;2023-10-09T05:18:46;16.20;99.90
9564;DHT22;4820;50.870;4.702;2023-10-09T05:21:28;16.20;99.90
9564;DHT22;4820;50.870;4.702;2023-10-09T05:23:59;16.10;99.90
9564;DHT22;4820;50.870;4.702;2023-10-09T05:26:47;16.10;99.90
9564;DHT22;4820;50.870;4.702;2023-10-09T05:29:14;16.10;99.90
9564;DHT22;4820;50.870;4.702;2023-10-09T05:32:04;16.10;99.90
9564;DHT22;4820;50.870;4.702;2023-10-09T05:34:40;16.10;99.90
9564;DHT22;4820;50.870;4.702;2023-10-09T05:37:29;16.10;99.90
9564;DHT22;4820;50.870;4.702;2023-10-09T05:40:07;16.10;99.90
9564;DHT22;4820;50.870;4.702;2023-10-09T05:42:42;16.00;99.90
9564;DHT22;4820;50.870;4.702;2023-10-09T05:45:11;16.00;99.90
9564;DHT22;4820;50.870;4.702;2023-10-09T05:47:51;16.00;99.90
9564;DHT22;4820;50.870;4.702;2023-10-09T05:50:44;16.00;99.90
9564;DHT22;4820;50.870;4.702;2023-10-09T05:53:28;16.00;99.90
9564;DHT22;4820;50.870;4.702;2023-10-09T05:56:12;16.00;99.90
9564;DHT22;4820;50.870;4.702;2023-10-09T05:58:56;16.00;99.90
9564;DHT22;4820;50.870;4.702;2023-10-09T06:01:40;16.00;99.90
9564;DHT22;4820;50.870;4.702;2023-10-09T06:04:25;16.00;99.90
9564;DHT22;4820;50.870;4.702;2023-10-09T06:07:10;16.00;99.90
9564;DHT22;4820;50.870;4.702;2023-10-09T06:09:39;16.00;99.90
9564;DHT22;4820;50.870;4.702;2023-10-09T06:12:22;16.00;99.90
9564;DHT22;4820;50.870;4.702;2023-10-09T06:14:57;16.00;99.90
9564;DHT22;4820;50.870;4.702;2023-10-09T06:17:41;16.10;99.90
9564;DHT22;4820;50.870;4.702;2023-10-09T06:20:16;16.00;99.90
9564;DHT22;4820;50.870;4.702;2023-10-09T06:23:00;16.00;99.90
9564;DHT22;4820;50.870;4.702;2023-10-09T06:25:42;16.00;99.90
9564;DHT22;4820;50.870;4.702;2023-10-09T06:28:17;16.00;99.90
9564;DHT22;4820;50.870;4.702;2023-10-09T06:30:45;16.00;99.90
9564;DHT22;4820;50.870;4.702;2023-10-09T06:33:13;16.10;99.90
9564;DHT22;4820;50.870;4.702;2023-10-09T06:35:46;16.10;99.90
9564;DHT22;4820;50.870;4.702;2023-10-09T06:38:19;16.10;99.90
9564;DHT22;4820;50.870;4.702;2023-10-09T06:40:48;16.10;99.90
9564;DHT22;4820;50.870;4.702;2023-10-09T06:43:20;16.10;99.90
9564;DHT22;4820;50.870;4.702;2023-10-09T06:45:52;16.20;99.90
9564;DHT22;4820;50.870;4.702;2023-10-09T06:48:45;16.20;99.90
9564;DHT22;4820;50.870;4.702;2023-10-09T06:51:13;16.20;99.90
9564;DHT22;4820;50.870;4.702;2023-10-09T06:53:54;16.20;99.90
9564;DHT22;4820;50.870;4.702;2023-10-09T06:56:21;16.30;99.90
9564;DHT22;4820;50.870;4.702;2023-10-09T06:58:53;16.30;99.90
9564;DHT22;4820;50.870;4.702;2023-10-09T07:01:26;16.30;99.90
9564;DHT22;4820;50.870;4.702;2023-10-09T07:04:05;16.40;99.90
9564;DHT22;4820;50.870;4.702;2023-10-09T07:06:57;16.40;99.90
9564;DHT22;4820;50.870;4.702;2023-10-09T07:09:24;16.50;99.90
9564;DHT22;4820;50.870;4.702;2023-10-09T07:12:10;16.50;99.90
9564;DHT22;4820;50.870;4.702;2023-10-09T07:14:41;16.50;99.90
9564;DHT22;4820;50.870;4.702;2023-10-09T07:17:08;16.60;99.90
9564;DHT22;4820;50.870;4.702;2023-10-09T07:19:53;16.60;99.90
9564;DHT22;4820;50.870;4.702;2023-10-09T07:22:19;16.60;99.90
9564;DHT22;4820;50.870;4.702;2023-10-09T07:24:54;16.60;99.90
9564;DHT22;4820;50.870;4.702;2023-10-09T07:27:31;16.60;99.90
9564;DHT22;4820;50.870;4.702;2023-10-09T07:30:20;16.60;99.90
9564;DHT22;4820;50.870;4.702;2023-10-09T07:35:47;16.60;99.90
9564;DHT22;4820;50.870;4.702;2023-10-09T07:38:22;16.70;99.90
9564;DHT22;4820;50.870;4.702;2023-10-09T07:40:51;16.70;99.90
9564;DHT22;4820;50.870;4.702;2023-10-09T07:43:36;16.70;99.90
9564;DHT22;4820;50.870;4.702;2023-10-09T07:46:09;16.80;99.90
9564;DHT22;4820;50.870;4.702;2023-10-09T07:48:55;16.80;99.90
9564;DHT22;4820;50.870;4.702;2023-10-09T07:51:21;16.90;99.90
9564;DHT22;4820;50.870;4.702;2023-10-09T07:53:57;16.90;99.90
9564;DHT22;4820;50.870;4.702;2023-10-09T07:56:33;17.00;99.90
9564;DHT22;4820;50.870;4.702;2023-10-09T07:59:05;17.10;99.90
9564;DHT22;4820;50.870;4.702;2023-10-09T08:01:40;17.20;99.90
9564;DHT22;4820;50.870;4.702;2023-10-09T08:04:18;17.30;99.90
9564;DHT22;4820;50.870;4.702;2023-10-09T08:06:46;17.40;99.90
9564;DHT22;4820;50.870;4.702;2023-10-09T08:09:13;17.60;99.90
9564;DHT22;4820;50.870;4.702;2023-10-09T08:11:48;17.60;99.90
9564;DHT22;4820;50.870;4.702;2023-10-09T08:14:43;17.70;99.90
9564;DHT22;4820;50.870;4.702;2023-10-09T08:17:11;17.70;99.90
9564;DHT22;4820;50.870;4.702;2023-10-09T08:19:48;17.80;99.90
9564;DHT22;4820;50.870;4.702;2023-10-09T08:22:27;17.80;99.90
9564;DHT22;4820;50.870;4.702;2023-10-09T08:25:11;17.80;99.90
9564;DHT22;4820;50.870;4.702;2023-10-09T08:28:03;17.80;99.90
9564;DHT22;4820;50.870;4.702;2023-10-09T08:30:52;17.70;99.90
9564;DHT22;4820;50.870;4.702;2023-10-09T08:33:20;17.70;99.90
9564;DHT22;4820;50.870;4.702;2023-10-09T08:35:55;17.70;99.90
9564;DHT22;4820;50.870;4.702;2023-10-09T08:38:28;17.60;99.90
9564;DHT22;4820;50.870;4.702;2023-10-09T08:41:09;17.60;99.90
9564;DHT22;4820;50.870;4.702;2023-10-09T08:43:48;17.60;99.90
9564;DHT22;4820;50.870;4.702;2023-10-09T08:46:27;17.70;99.90
9564;DHT22;4820;50.870;4.702;2023-10-09T08:48:55;17.70;99.90
9564;DHT22;4820;50.870;4.702;2023-10-09T08:51:23;17.70;99.90
9564;DHT22;4820;50.870;4.702;2023-10-09T08:53:49;17.70;99.90
9564;DHT22;4820;50.870;4.702;2023-10-09T08:56:20;17.80;99.90
9564;DHT22;4820;50.870;4.702;2023-10-09T08:58:57;17.80;99.90
9564;DHT22;4820;50.870;4.702;2023-10-09T09:01:23;17.90;99.90
9564;DHT22;4820;50.870;4.702;2023-10-09T09:03:51;18.00;99.90
9564;DHT22;4820;50.870;4.702;2023-10-09T09:06:21;18.00;99.90
9564;DHT22;4820;50.870;4.702;2023-10-09T09:08:49;18.10;99.90
9564;DHT22;4820;50.870;4.702;2023-10-09T09:11:20;18.20;99.90
9564;DHT22;4820;50.870;4.702;2023-10-09T09:16:31;18.40;99.90
9564;DHT22;4820;50.870;4.702;2023-10-09T09:18:58;18.40;99.90
9564;DHT22;4820;50.870;4.702;2023-10-09T09:21:32;18.50;99.90
9564;DHT22;4820;50.870;4.702;2023-10-09T09:24:05;18.50;99.90
9564;DHT22;4820;50.870;4.702;2023-10-09T09:26:42;18.50;99.90
9564;DHT22;4820;50.870;4.702;2023-10-09T09:29:15;18.50;99.90
9564;DHT22;4820;50.870;4.702;2023-10-09T09:31:55;18.50;99.90
9564;DHT22;4820;50.870;4.702;2023-10-09T09:34:43;18.50;99.90
9564;DHT22;4820;50.870;4.702;2023-10-09T09:37:10;18.50;99.90
9564;DHT22;4820;50.870;4.702;2023-10-09T09:39:43;18.50;99.90
9564;DHT22;4820;50.870;4.702;2023-10-09T09:42:09;18.60;99.90
9564;DHT22;4820;50.870;4.702;2023-10-09T09:44:44;18.70;99.90
9564;DHT22;4820;50.870;4.702;2023-10-09T09:47:14;18.90;99.90
9564;DHT22;4820;50.870;4.702;2023-10-09T09:49:50;19.00;99.90
9564;DHT22;4820;50.870;4.702;2023-10-09T09:52:17;19.20;99.90
9564;DHT22;4820;50.870;4.702;2023-10-09T09:54:44;19.40;99.90
9564;DHT22;4820;50.870;4.702;2023-10-09T09:57:13;19.60;99.90
9564;DHT22;4820;50.870;4.702;2023-10-09T09:59:41;19.70;99.90
9564;DHT22;4820;50.870;4.702;2023-10-09T10:02:20;19.70;99.90
9564;DHT22;4820;50.870;4.702;2023-10-09T10:04:51;19.80;99.90
9564;DHT22;4820;50.870;4.702;2023-10-09T10:07:19;19.80;99.90
9564;DHT22;4820;50.870;4.702;2023-10-09T10:09:46;19.80;99.90
9564;DHT22;4820;50.870;4.702;2023-10-09T10:12:15;19.80;99.90
9564;DHT22;4820;50.870;4.702;2023-10-09T10:15:00;19.80;99.90
9564;DHT22;4820;50.870;4.702;2023-10-09T10:20:22;19.80;99.90
9564;DHT22;4820;50.870;4.702;2023-10-09T10:22:58;19.80;99.90
9564;DHT22;4820;50.870;4.702;2023-10-09T10:25:42;19.80;99.90
9564;DHT22;4820;50.870;4.702;2023-10-09T10:28:25;19.90;99.90
9564;DHT22;4820;50.870;4.702;2023-10-09T10:30:55;20.00;99.90
9564;DHT22;4820;50.870;4.702;2023-10-09T10:33:21;20.00;99.90
9564;DHT22;4820;50.870;4.702;2023-10-09T10:35:48;20.10;99.90
9564;DHT22;4820;50.870;4.702;2023-10-09T10:38:30;20.20;99.90
9564;DHT22;4820;50.870;4.702;2023-10-09T10:43:45;20.40;99.90
9564;DHT22;4820;50.870;4.702;2023-10-09T10:46:22;20.50;99.90
9564;DHT22;4820;50.870;4.702;2023-10-09T10:49:00;20.50;99.90
9564;DHT22;4820;50.870;4.702;2023-10-09T10:51:35;20.60;99.90
9564;DHT22;4820;50.870;4.702;2023-10-09T10:54:04;20.70;99.90
9564;DHT22;4820;50.870;4.702;2023-10-09T10:56:50;20.70;99.90
9564;DHT22;4820;50.870;4.702;2023-10-09T10:59:18;20.70;99.90
9564;DHT22;4820;50.870;4.702;2023-10-09T11:01:53;20.70;99.90
9564;DHT22;4820;50.870;4.702;2023-10-09T11:04:26;20.70;99.90
9564;DHT22;4820;50.870;4.702;2023-10-09T11:06:58;20.70;99.90
9564;DHT22;4820;50.870;4.702;2023-10-09T11:09:57;20.80;99.90
9564;DHT22;4820;50.870;4.702;2023-10-09T11:15:14;20.90;99.90
9564;DHT22;4820;50.870;4.702;2023-10-09T11:18:01;21.00;99.90
9564;DHT22;4820;50.870;4.702;2023-10-09T11:20:34;21.00;99.90
9564;DHT22;4820;50.870;4.702;2023-10-09T11:23:00;20.90;99.90
9564;DHT22;4820;50.870;4.702;2023-10-09T11:25:33;21.00;99.90
9564;DHT22;4820;50.870;4.702;2023-10-09T11:27:59;21.00;99.90
9564;DHT22;4820;50.870;4.702;2023-10-09T11:30:41;21.00;99.90
9564;DHT22;4820;50.870;4.702;2023-10-09T11:33:11;21.00;99.90
9564;DHT22;4820;50.870;4.702;2023-10-09T11:35:40;21.00;99.90
9564;DHT22;4820;50.870;4.702;2023-10-09T11:38:09;21.00;99.90
9564;DHT22;4820;50.870;4.702;2023-10-09T11:40:47;21.10;99.90
9564;DHT22;4820;50.870;4.702;2023-10-09T11:43:19;21.10;99.90
9564;DHT22;4820;50.870;4.702;2023-10-09T11:46:11;21.20;99.90
9564;DHT22;4820;50.870;4.702;2023-10-09T11:48:37;21.30;99.90
9564;DHT22;4820;50.870;4.702;2023-10-09T11:51:31;21.40;99.90
9564;DHT22;4820;50.870;4.702;2023-10-09T11:53:57;21.40;99.90
9564;DHT22;4820;50.870;4.702;2023-10-09T11:56:24;21.40;99.90
9564;DHT22;4820;50.870;4.702;2023-10-09T11:58:53;21.30;99.90
9564;DHT22;4820;50.870;4.702;2023-10-09T12:01:20;21.20;99.90
9564;DHT22;4820;50.870;4.702;2023-10-09T12:03:47;21.20;99.90
9564;DHT22;4820;50.870;4.702;2023-10-09T12:06:16;21.20;99.90
9564;DHT22;4820;50.870;4.702;2023-10-09T12:08:45;21.20;99.90
9564;DHT22;4820;50.870;4.702;2023-10-09T12:11:14;21.30;99.90
9564;DHT22;4820;50.870;4.702;2023-10-09T12:13:48;21.40;99.90
9564;DHT22;4820;50.870;4.702;2023-10-09T12:16:13;21.50;99.90
9564;DHT22;4820;50.870;4.702;2023-10-09T12:18:41;21.50;99.90
9564;DHT22;4820;50.870;4.702;2023-10-09T12:21:08;21.60;99.90
9564;DHT22;4820;50.870;4.702;2023-10-09T12:23:41;21.70;99.90
9564;DHT22;4820;50.870;4.702;2023-10-09T12:26:09;21.80;99.90
9564;DHT22;4820;50.870;4.702;2023-10-09T12:28:40;21.90;99.90
9564;DHT22;4820;50.870;4.702;2023-10-09T12:31:06;22.00;99.90
9564;DHT22;4820;50.870;4.702;2023-10-09T12:33:32;22.00;99.90
9564;DHT22;4820;50.870;4.702;2023-10-09T12:35:58;22.00;99.90
9564;DHT22;4820;50.870;4.702;2023-10-09T12:38:27;22.00;99.90
9564;DHT22;4820;50.870;4.702;2023-10-09T12:41:04;22.10;99.90
9564;DHT22;4820;50.870;4.702;2023-10-09T12:43:51;22.10;99.90
9564;DHT22;4820;50.870;4.702;2023-10-09T12:46:18;22.10;99.90
9564;DHT22;4820;50.870;4.702;2023-10-09T12:48:48;22.10;99.90
9564;DHT22;4820;50.870;4.702;2023-10-09T12:51:15;22.10;99.90
9564;DHT22;4820;50.870;4.702;2023-10-09T12:53:44;22.10;99.90
9564;DHT22;4820;50.870;4.702;2023-10-09T12:56:11;22.20;99.90
9564;DHT22;4820;50.870;4.702;2023-10-09T12:58:38;22.20;99.90
9564;DHT22;4820;50.870;4.702;2023-10-09T13:01:05;22.20;99.90
9564;DHT22;4820;50.870;4.702;2023-10-09T13:03:39;22.10;99.90
9564;DHT22;4820;50.870;4.702;2023-10-09T13:06:05;22.20;99.90
9564;DHT22;4820;50.870;4.702;2023-10-09T13:08:37;22.10;99.90
9564;DHT22;4820;50.870;4.702;2023-10-09T13:11:07;22.10;99.90
9564;DHT22;4820;50.870;4.702;2023-10-09T13:13:38;22.10;99.90
9564;DHT22;4820;50.870;4.702;2023-10-09T13:16:11;22.00;99.90
9564;DHT22;4820;50.870;4.702;2023-10-09T13:18:39;21.90;99.90
9564;DHT22;4820;50.870;4.702;2023-10-09T13:21:05;21.80;99.90
9564;DHT22;4820;50.870;4.702;2023-10-09T13:23:31;21.80;99.90
9564;DHT22;4820;50.870;4.702;2023-10-09T13:26:13;21.70;99.90
9564;DHT22;4820;50.870;4.702;2023-10-09T13:28:49;21.70;99.90
9564;DHT22;4820;50.870;4.702;2023-10-09T13:31:15;21.70;99.90
9564;DHT22;4820;50.870;4.702;2023-10-09T13:33:41;21.70;99.90
9564;DHT22;4820;50.870;4.702;2023-10-09T13:36:09;21.70;99.90
9564;DHT22;4820;50.870;4.702;2023-10-09T13:38:57;21.60;99.90
9564;DHT22;4820;50.870;4.702;2023-10-09T13:41:23;21.60;99.90
9564;DHT22;4820;50.870;4.702;2023-10-09T13:43:55;21.70;99.90
9564;DHT22;4820;50.870;4.702;2023-10-09T13:46:23;21.80;99.90
9564;DHT22;4820;50.870;4.702;2023-10-09T13:48:51;21.90;99.90
9564;DHT22;4820;50.870;4.702;2023-10-09T13:51:18;21.90;99.90
9564;DHT22;4820;50.870;4.702;2023-10-09T13:53:45;22.00;99.90
9564;DHT22;4820;50.870;4.702;2023-10-09T13:56:15;22.00;99.90
9564;DHT22;4820;50.870;4.702;2023-10-09T13:58:51;22.00;99.90
9564;DHT22;4820;50.870;4.702;2023-10-09T14:01:18;22.00;99.90
9564;DHT22;4820;50.870;4.702;2023-10-09T14:03:57;22.00;99.90
9564;DHT22;4820;50.870;4.702;2023-10-09T14:06:24;22.00;99.90
9564;DHT22;4820;50.870;4.702;2023-10-09T14:09:00;22.00;99.90
9564;DHT22;4820;50.870;4.702;2023-10-09T14:11:30;21.90;99.90
9564;DHT22;4820;50.870;4.702;2023-10-09T14:13:56;21.90;99.90
9564;DHT22;4820;50.870;4.702;2023-10-09T14:16:26;21.90;99.90
9564;DHT22;4820;50.870;4.702;2023-10-09T14:18:58;21.90;99.90
9564;DHT22;4820;50.870;4.702;2023-10-09T14:21:33;21.90;99.90
9564;DHT22;4820;50.870;4.702;2023-10-09T14:24:07;21.90;99.90
9564;DHT22;4820;50.870;4.702;2023-10-09T14:26:43;21.80;99.90
9564;DHT22;4820;50.870;4.702;2023-10-09T14:29:12;21.80;99.90
9564;DHT22;4820;50.870;4.702;2023-10-09T14:31:44;21.80;99.90
9564;DHT22;4820;50.870;4.702;2023-10-09T14:34:14;21.80;99.90
9564;DHT22;4820;50.870;4.702;2023-10-09T14:36:40;21.80;99.90
9564;DHT22;4820;50.870;4.702;2023-10-09T14:39:09;21.80;99.90
9564;DHT22;4820;50.870;4.702;2023-10-09T14:41:39;21.80;99.90
9564;DHT22;4820;50.870;4.702;2023-10-09T14:44:06;21.80;99.90
9564;DHT22;4820;50.870;4.702;2023-10-09T14:46:31;21.80;99.90
9564;DHT22;4820;50.870;4.702;2023-10-09T14:48:57;21.80;99.90
9564;DHT22;4820;50.870;4.702;2023-10-09T14:51:23;21.80;99.90
9564;DHT22;4820;50.870;4.702;2023-10-09T14:53:56;21.70;99.90
9564;DHT22;4820;50.870;4.702;2023-10-09T14:56:28;21.70;99.90
9564;DHT22;4820;50.870;4.702;2023-10-09T14:58:58;21.70;99.90
9564;DHT22;4820;50.870;4.702;2023-10-09T15:01:27;21.70;99.90
9564;DHT22;4820;50.870;4.702;2023-10-09T15:03:59;21.70;99.90
9564;DHT22;4820;50.870;4.702;2023-10-09T15:06:29;21.70;99.90
9564;DHT22;4820;50.870;4.702;2023-10-09T15:08:59;21.70;99.90
9564;DHT22;4820;50.870;4.702;2023-10-09T15:11:33;21.70;99.90
9564;DHT22;4820;50.870;4.702;2023-10-09T15:13:59;21.70;99.90
9564;DHT22;4820;50.870;4.702;2023-10-09T15:16:25;21.70;99.90
9564;DHT22;4820;50.870;4.702;2023-10-09T15:18:57;21.70;99.90
9564;DHT22;4820;50.870;4.702;2023-10-09T15:21:24;21.60;99.90
9564;DHT22;4820;50.870;4.702;2023-10-09T15:23:56;21.60;99.90
9564;DHT22;4820;50.870;4.702;2023-10-09T15:26:22;21.60;99.90
9564;DHT22;4820;50.870;4.702;2023-10-09T15:28:50;21.50;99.90
9564;DHT22;4820;50.870;4.702;2023-10-09T15:31:17;21.30;99.90
9564;DHT22;4820;50.870;4.702;2023-10-09T15:33:44;21.30;99.90
9564;DHT22;4820;50.870;4.702;2023-10-09T15:36:14;21.20;99.90
9564;DHT22;4820;50.870;4.702;2023-10-09T15:38:45;21.20;99.90
9564;DHT22;4820;50.870;4.702;2023-10-09T15:41:11;21.10;99.90
9564;DHT22;4820;50.870;4.702;2023-10-09T15:43:41;21.10;99.90
9564;DHT22;4820;50.870;4.702;2023-10-09T15:46:14;21.10;99.90
9564;DHT22;4820;50.870;4.702;2023-10-09T15:48:42;21.00;99.90
9564;DHT22;4820;50.870;4.702;2023-10-09T15:51:12;21.00;99.90
9564;DHT22;4820;50.870;4.702;2023-10-09T15:53:44;20.90;99.90
9564;DHT22;4820;50.870;4.702;2023-10-09T15:56:14;20.80;99.90
9564;DHT22;4820;50.870;4.702;2023-10-09T15:58:40;20.80;99.90
9564;DHT22;4820;50.870;4.702;2023-10-09T16:01:17;20.70;99.90
9564;DHT22;4820;50.870;4.702;2023-10-09T16:03:44;20.70;99.90
9564;DHT22;4820;50.870;4.702;2023-10-09T16:06:14;20.70;99.90
9564;DHT22;4820;50.870;4.702;2023-10-09T16:08:46;20.60;99.90
9564;DHT22;4820;50.870;4.702;2023-10-09T16:11:20;20.60;99.90
9564;DHT22;4820;50.870;4.702;2023-10-09T16:13:52;20.50;99.90
9564;DHT22;4820;50.870;4.702;2023-10-09T16:16:29;20.50;99.90
9564;DHT22;4820;50.870;4.702;2023-10-09T16:18:55;20.40;99.90
9564;DHT22;4820;50.870;4.702;2023-10-09T16:21:23;20.40;99.90
9564;DHT22;4820;50.870;4.702;2023-10-09T16:23:50;20.30;99.90
9564;DHT22;4820;50.870;4.702;2023-10-09T16:26:16;20.30;99.90
9564;DHT22;4820;50.870;4.702;2023-10-09T16:28:43;20.30;99.90
9564;DHT22;4820;50.870;4.702;2023-10-09T16:31:10;20.20;99.90
9564;DHT22;4820;50.870;4.702;2023-10-09T16:33:40;20.20;99.90
9564;DHT22;4820;50.870;4.702;2023-10-09T16:36:06;20.20;99.90
9564;DHT22;4820;50.870;4.702;2023-10-09T16:38:33;20.10;99.90
9564;DHT22;4820;50.870;4.702;2023-10-09T16:41:05;20.00;99.90
9564;DHT22;4820;50.870;4.702;2023-10-09T16:43:37;20.00;99.90
9564;DHT22;4820;50.870;4.702;2023-10-09T16:46:06;20.00;99.90
9564;DHT22;4820;50.870;4.702;2023-10-09T16:48:37;19.90;99.90
9564;DHT22;4820;50.870;4.702;2023-10-09T16:51:03;19.90;99.90
9564;DHT22;4820;50.870;4.702;2023-10-09T16:53:34;19.90;99.90
9564;DHT22;4820;50.870;4.702;2023-10-09T16:56:02;19.80;99.90
9564;DHT22;4820;50.870;4.702;2023-10-09T16:58:37;19.70;99.90
9564;DHT22;4820;50.870;4.702;2023-10-09T17:01:03;19.70;99.90